Strona główna
METAR-TAF:

METAR-TAF

Lotnisko :

Le Touquet, Francja

Szerokość geograficzna: 50-30-53N, Długość geograficzna: 001-37-39E, wysokość: 6 m

Aktualna obserwacja pogody

Raport powstał 10 minut temu, godzina 14:00 UTC
Wiatr 21 kt od północno-północny wschód w porywach dochodzący do 34 kt, zmienny między północ i wschodnio-północny wschód
Temperatura 11°C
Wilgotność 62%
Ciśnienie 1024 hPa
Widzialność 10 km lub więcej
Brak chmur poniżej 1500 m i brak chmur cumulonimbus

METAR: LFAT 281400Z AUTO 03021G34KT 360V060 CAVOK 11/04 Q1024 NOSIG

czas: 15:10 (14:10 UTC)

Prognoza

Raport powstał 3 godziny i 10 minut temu, godzina 11:00 UTC
Prognoza ważna od 28 godzina 12 UTC do 28 godzina 21 UTC
Wiatr 15 kt od północno-północny wschód
Widzialność 10 km lub więcej
Brak chmur poniżej 1500 m i brak chmur cumulonimbus
Przejściowo
od 28 godzina 12 UTC do 28 godzina 21 UTC
Wiatr 20 kt od północno-północny wschód w porywach dochodzący do 30 kt

TAF: LFAT 281100Z 2812/2821 03015KT CAVOK TEMPO 2812/2821 03020G30KT

Obserwacja i prognoza pogody dla ponad 4000 lotnisk (raport METAR i TAF).

Dostępne stacje oznaczono żółtymi i czerwonymi punktami na mapie.

Najedź kursorem aby zobaczyć nazwę stacji.

Kliknij aby zobaczyć obserwacje i prognozy pogody.

Aby zmienić mapę: kliknij na zielony przycisk z czarnym krzyżykiem, aby powiększyć; na zielony przycisk z myślnikiem, aby pomniejszyć; na zielone strzałki, aby przejść do map sąsiednich.


METAR-TAF: